Have a Safe July 4th! 

Flight Track Log - Related Links

Times and Time Zones

All times are in EDT time to prevent confusion due to time zone crossing. See the DAL1981 flight status page for this flight to view local times or setup timezone preferences in your user account.

Time Position Orientation Groundspeed Altitude Reporting Facility
EDT Latitude Longitude Course Direction KTS MPH feet Rate Location/Type
Mon 03:53:33 PM 38.6667 -121.5500 78° East 177 204 1,900  Level Northern Cal TRACON
Mon 03:54:33 PM 38.6500 -121.4667 104° East 257 296 3,300 2,172 Climbing Northern Cal TRACON
Mon 03:55:00 PM 38.4989 -121.2413 80° East  Level FlightAware Approximate
Mon 03:56:00 PM 38.5375 -121.0794 76° East  Level FlightAware Approximate
Mon 03:56:27 PM 38.6139 -121.2900 105° East 287 330 8,200  Level Oakland Center
Mon 03:57:00 PM 38.5672 -120.9138 78° East  Level FlightAware Approximate
Mon 03:57:28 PM 38.5914 -121.1847 105° East 308 354 10,500  Level Oakland Center
Mon 03:58:00 PM 38.5949 -120.7477 78° East  Level FlightAware Approximate
Mon 03:58:29 PM 38.5706 -121.0856 105° East 314 361 12,600  Level Oakland Center
Mon 03:59:30 PM 38.5739 -120.9686 88° East 333 383 15,100 2,361 Climbing Oakland Center
Mon 04:00:31 PM 38.5817 -120.8539 85° East 325 374 17,400 1,512 Climbing Oakland Center
Mon 04:01:33 PM 38.5733 -120.7289 95° East 349 402 18,200 1,073 Climbing Oakland Center
Mon 04:02:34 PM 38.5675 -120.5572 92° East 400 460 19,600 1,525 Climbing Oakland Center
Mon 04:03:35 PM 38.5694 -120.4089 89° East 416 479 21,300 1,918 Climbing Oakland Center
Mon 04:04:36 PM 38.6175 -120.2761 65° Northeast 407 468 23,500 2,098 Climbing Oakland Center
Mon 04:05:38 PM 38.6636 -120.1486 65° Northeast 397 457 25,600 1,610 Climbing Oakland Center
Mon 04:06:39 PM 38.7111 -120.0233 64° Northeast 393 452 26,800 934 Climbing Oakland Center
Mon 04:07:40 PM 38.7572 -119.8933 66° East 400 460 27,500 590 Climbing Oakland Center
Mon 04:08:41 PM 38.8072 -119.7536 65° Northeast 422 486 28,000 537 Climbing Oakland Center
Mon 04:09:43 PM 38.8597 -119.6131 64° Northeast 436 502 28,600 1,073 Climbing Oakland Center
Mon 04:10:44 PM 38.9100 -119.4706 66° East 438 504 30,200 1,279 Climbing Oakland Center
Mon 04:11:45 PM 38.9608 -119.3317 65° Northeast 431 496 31,200 885 Climbing Oakland Center
Mon 04:12:46 PM 39.0106 -119.1914 65° Northeast 432 497 32,000 639 Climbing Oakland Center
Mon 04:13:47 PM 39.0717 -119.0239 65° Northeast 434 499 32,500 590 Climbing Oakland Center
Mon 04:14:48 PM 39.1269 -118.8831 63° Northeast 443 510 33,200 404 Climbing Oakland Center
Mon 04:16:45 PM 39.2369 -118.5939 64° Northeast 462 532 33,700 326 Climbing Salt Lake Center
Mon 04:17:52 PM 39.3028 -118.4261 63° Northeast 464 534 34,200 609 Climbing Oakland Center
Mon 04:18:53 PM 39.3508 -118.2997 64° Northeast 463 533 35,000 393 Climbing Oakland Center
Mon 04:19:54 PM 39.4075 -118.1508 64° Northeast 464 534 35,000  Level Oakland Center
Mon 04:20:55 PM 39.4758 -117.9678 64° Northeast 471 542 35,000  Level Oakland Center
Mon 04:21:57 PM 39.5333 -117.8136 64° Northeast 477 549 35,000  Level Oakland Center
Mon 04:22:58 PM 39.5900 -117.6611 64° Northeast 472 543 35,000  Level Oakland Center
Mon 04:23:59 PM 39.6467 -117.5075 64° Northeast 474 545 35,000  Level Oakland Center
Mon 04:25:00 PM 39.7039 -117.3550 64° Northeast 475 547 35,000  Level Oakland Center
Mon 04:26:01 PM 39.7572 -117.2025 65° Northeast 481 554 35,000  Level Oakland Center
Mon 04:27:02 PM 39.8206 -117.0281 65° Northeast 481 554 35,000  Level Oakland Center
Mon 04:27:02 PM 39.8206 -117.0281 65° Northeast 479 551 35,000  Level Salt Lake Center
Mon 04:28:04 PM 39.8753 -116.8769 65° Northeast 482 555 35,000  Level Salt Lake Center
Mon 04:30:06 PM 39.9922 -116.5500 65° Northeast 485 558 35,000  Level Oakland Center
Mon 04:31:07 PM 40.0467 -116.4006 65° Northeast 481 554 35,000  Level Oakland Center
Mon 04:32:11 PM 40.1081 -116.2261 65° Northeast 475 547 35,000  Level Salt Lake Center
Mon 04:33:13 PM 40.1661 -116.0544 66° East 467 537 35,000  Level Salt Lake Center
Mon 04:34:14 PM 40.2017 -115.9064 73° East 452 520 35,000  Level Salt Lake Center
Mon 04:35:16 PM 40.2481 -115.7300 71° East 461 531 35,000  Level Salt Lake Center
Mon 04:36:18 PM 40.2881 -115.5761 71° East 466 536 35,000  Level Salt Lake Center
Mon 04:37:20 PM 40.3267 -115.4214 72° East 466 536 35,000  Level Salt Lake Center
Mon 04:38:22 PM 40.3714 -115.2444 72° East 460 529 35,000  Level Salt Lake Center
Mon 04:39:23 PM 40.4067 -115.0914 73° East 458 527 35,000  Level Salt Lake Center
Mon 04:40:25 PM 40.4517 -114.9136 72° East 460 529 35,000  Level Salt Lake Center
Mon 04:41:27 PM 40.4864 -114.7692 72° East 458 527 35,000  Level Salt Lake Center
Mon 04:42:29 PM 40.5314 -114.5783 73° East 458 527 35,000  Level Salt Lake Center
Mon 04:43:31 PM 40.5708 -114.4153 72° East 465 535 35,000  Level Salt Lake Center
Mon 04:44:32 PM 40.6103 -114.2522 72° East 470 541 35,000  Level Salt Lake Center
Mon 04:45:34 PM 40.6486 -114.0881 73° East 469 540 35,000 48 Level Salt Lake Center
Mon 04:46:36 PM 40.6936 -113.9231 70° East 477 549 35,100  Climbing Salt Lake Center
Mon 04:47:38 PM 40.7436 -113.7594 68° East 480 552 35,000 -49 Descending Salt Lake Center
Mon 04:48:39 PM 40.7919 -113.5956 69° East 480 552 35,000  Level Salt Lake Center
Mon 04:49:41 PM 40.8514 -113.3983 68° East 483 556 35,000  Level Salt Lake Center
Mon 04:50:43 PM 40.8981 -113.2333 69° East 481 554 35,000  Level Salt Lake Center
Mon 04:51:45 PM 40.9447 -113.0669 70° East 483 556 35,000  Level Salt Lake Center
Mon 04:52:47 PM 40.9917 -112.9042 69° East 476 548 35,000  Level Salt Lake Center
Mon 04:53:48 PM 41.0397 -112.7417 69° East 474 545 35,000  Level Salt Lake Center
Mon 04:54:50 PM 41.0853 -112.5794 70° East 471 542 35,000  Level Salt Lake Center
Mon 04:55:52 PM 41.1319 -112.4150 69° East 475 547 35,000  Level Salt Lake Center
Mon 04:56:53 PM 41.1881 -112.2150 69° East 479 551 35,000  Level Salt Lake Center
Mon 04:57:55 PM 41.2350 -112.0472 70° East 480 552 35,000  Level Salt Lake Center
Mon 04:58:57 PM 41.2825 -111.8781 69° East 482 555 35,000 48 Level Salt Lake Center
Mon 04:59:59 PM 41.3294 -111.7075 70° East 486 559 35,100  Climbing Salt Lake Center
Mon 05:01:00 PM 41.3750 -111.5389 70° East 481 554 35,000 244 Descending Salt Lake Center
Mon 05:02:02 PM 41.4203 -111.3725 70° East 478 550 35,600 484 Climbing Salt Lake Center
Mon 05:03:04 PM 41.4639 -111.2078 70° East 472 543 36,000 194 Climbing Salt Lake Center
Mon 05:04:06 PM 41.5089 -111.0414 70° East 475 547 36,000  Level Salt Lake Center
Mon 05:05:07 PM 41.5575 -110.8547 71° East 477 549 36,000  Level Salt Lake Center
Mon 05:06:09 PM 41.6008 -110.6947 70° East 478 550 36,000  Level Salt Lake Center
Mon 05:07:11 PM 41.6503 -110.5075 70° East 479 551 36,000  Level Salt Lake Center
Mon 05:08:13 PM 41.6933 -110.3442 71° East 485 558 36,000  Level Salt Lake Center
Mon 05:09:14 PM 41.7414 -110.1544 71° East 483 556 36,000  Level Salt Lake Center
Mon 05:10:16 PM 41.7836 -109.9917 71° East 483 556 36,000  Level Salt Lake Center
Mon 05:11:18 PM 41.8264 -109.8258 71° East 488 562 36,000  Level Salt Lake Center
Mon 05:12:20 PM 41.8747 -109.6344 71° East 486 559 36,000  Level Salt Lake Center
Mon 05:13:21 PM 41.9158 -109.4697 71° East 485 558 36,000  Level Salt Lake Center
Mon 05:14:23 PM 41.9633 -109.2792 71° East 481 554 36,000  Level Salt Lake Center
Mon 05:15:25 PM 42.0042 -109.1158 71° East 480 552 36,000  Level Salt Lake Center
Mon 05:16:27 PM 42.0442 -108.9514 72° East 481 554 36,000  Level Salt Lake Center
Mon 05:17:28 PM 42.0917 -108.7597 71° East 482 555 36,000  Level Salt Lake Center
Mon 05:18:30 PM 42.1322 -108.5964 71° East 481 554 36,000  Level Salt Lake Center
Mon 05:19:32 PM 42.1769 -108.4042 73° East 481 554 36,000 194 Level Salt Lake Center
Mon 05:20:34 PM 42.2150 -108.2406 73° East 477 549 36,400 435 Climbing Salt Lake Center
Mon 05:21:36 PM 42.2603 -108.0481 72° East 481 554 36,900 293 Climbing Salt Lake Center
Mon 05:22:37 PM 42.2981 -107.8847 73° East 478 550 37,000 49 Climbing Salt Lake Center
Mon 05:23:39 PM 42.3378 -107.7181 72° East 486 559 37,000  Level Salt Lake Center
Mon 05:24:41 PM 42.3864 -107.5247 71° East 486 559 37,000  Level Salt Lake Center
Mon 05:25:43 PM 42.4217 -107.3581 74° East 484 557 37,000  Level Salt Lake Center
Mon 05:26:45 PM 42.4667 -107.1644 72° East 483 556 37,000  Level Salt Lake Center
Mon 05:27:46 PM 42.5042 -106.9922 73° East 493 567 37,000  Level Denver Center
Mon 05:28:48 PM 42.5436 -106.8081 74° East 487 560 37,000  Level Denver Center
Mon 05:29:50 PM 42.5883 -106.6122 73° East 487 560 37,000  Level Denver Center
Mon 05:30:52 PM 42.6256 -106.4408 74° East 493 567 37,000  Level Denver Center
Mon 05:31:54 PM 42.6636 -106.2675 73° East 500 575 37,000  Level Denver Center
Mon 05:32:56 PM 42.7067 -106.0636 74° East 502 578 37,000  Level Denver Center
Mon 05:33:58 PM 42.7428 -105.8892 74° East 501 577 37,000  Level Denver Center
Mon 05:34:59 PM 42.7858 -105.6842 74° East 506 582 37,000  Level Denver Center
Mon 05:36:01 PM 42.8233 -105.5100 74° East 501 577 37,000  Level Denver Center
Mon 05:37:03 PM 42.8658 -105.3047 74° East 500 575 37,000  Level Denver Center
Mon 05:38:05 PM 42.9022 -105.1311 74° East 498 573 37,000  Level Denver Center
Mon 05:39:07 PM 42.9372 -104.9575 75° East 494 568 37,000  Level Denver Center
Mon 05:40:09 PM 42.9794 -104.7511 74° East 501 577 37,000 48 Level Denver Center
Mon 05:41:11 PM 43.0153 -104.5728 75° East 504 580 37,100 48 Climbing Denver Center
Mon 05:42:13 PM 43.0567 -104.3639 75° East 506 582 37,100 -48 Level Denver Center
Mon 05:43:15 PM 43.0917 -104.1853 75° East 505 581 37,000 -49 Descending Denver Center
Mon 05:44:16 PM 43.1308 -103.9794 75° East 502 578 37,000  Level Denver Center
Mon 05:45:18 PM 43.1656 -103.8008 75° East 503 579 37,000  Level Denver Center
Mon 05:46:20 PM 43.1994 -103.6233 75° East 504 580 37,000 48 Level Denver Center
Mon 05:47:22 PM 43.2386 -103.4139 76° East 507 583 37,100  Climbing Denver Center
Mon 05:48:24 PM 43.2739 -103.2339 75° East 510 587 37,000 -48 Descending Denver Center
Mon 05:49:26 PM 43.3108 -103.0275 76° East 501 577 37,000  Level Denver Center
Mon 05:50:28 PM 43.3433 -102.8494 76° East 504 580 37,000  Level Denver Center
Mon 05:51:29 PM 43.3814 -102.6439 76° East 498 573 37,000  Level Denver Center
Mon 05:52:31 PM 43.4119 -102.4650 77° East 503 579 37,000  Level Denver Center
Mon 05:53:33 PM 43.4486 -102.2575 76° East 501 577 37,000  Level Denver Center
Mon 05:54:35 PM 43.4811 -102.0758 76° East 502 578 37,000  Level Denver Center
Mon 05:55:37 PM 43.5136 -101.8869 77° East 507 583 37,000  Level Denver Center
Mon 05:56:39 PM 43.5467 -101.6978 76° East 508 585 37,000  Level Denver Center
Mon 05:57:40 PM 43.5783 -101.5064 77° East 513 590 37,000  Level Denver Center
Mon 05:58:42 PM 43.6106 -101.3136 77° East 517 595 37,000  Level Denver Center
Mon 05:59:32 PM 43.6436 -101.1222 77° East 519 597 37,000  Level Minneapolis Center
Mon 06:00:33 PM 43.6758 -100.9264 77° East 524 603 37,000  Level Minneapolis Center
Mon 06:01:35 PM 43.7075 -100.7303 77° East 525 604 37,000  Level Minneapolis Center
Mon 06:02:37 PM 43.7392 -100.5381 77° East 519 597 37,000  Level Minneapolis Center
Mon 06:03:39 PM 43.7689 -100.3464 78° East 515 593 37,000  Level Minneapolis Center
Mon 06:04:40 PM 43.8000 -100.1539 77° East 516 594 37,000  Level Minneapolis Center
Mon 06:05:42 PM 43.8289 -99.9619 78° East 513 590 37,000  Level Minneapolis Center
Mon 06:06:44 PM 43.8650 -99.7303 78° East 515 593 37,000  Level Minneapolis Center
Mon 06:07:46 PM 43.8931 -99.5392 78° East 511 588 37,000  Level Minneapolis Center
Mon 06:08:48 PM 43.9225 -99.3475 78° East 511 588 37,000  Level Minneapolis Center
Mon 06:09:49 PM 43.9503 -99.1586 78° East 505 581 37,000  Level Minneapolis Center
Mon 06:10:51 PM 43.9778 -98.9678 79° East 506 582 37,000  Level Minneapolis Center
Mon 06:11:53 PM 44.0056 -98.7761 79° East 508 585 37,000  Level Minneapolis Center
Mon 06:12:55 PM 44.0378 -98.5511 79° East 509 586 37,000  Level Minneapolis Center
Mon 06:13:56 PM 44.0644 -98.3606 79° East 506 582 37,000  Level Minneapolis Center
Mon 06:14:58 PM 44.0900 -98.1681 79° East 507 583 37,000  Level Minneapolis Center
Mon 06:16:00 PM 44.1178 -97.9747 79° East 509 586 37,000  Level Minneapolis Center
Mon 06:17:02 PM 44.1444 -97.7819 79° East 509 586 37,000  Level Minneapolis Center
Mon 06:18:04 PM 44.1692 -97.5886 80° East 509 586 37,000  Level Minneapolis Center
Mon 06:19:05 PM 44.2178 -97.3681 73° East 495 570 37,000  Level Minneapolis Center
Mon 06:20:07 PM 44.3083 -97.2353 46° Northeast 469 540 37,000  Level Minneapolis Center
Mon 06:21:09 PM 44.4017 -97.1056 45° Northeast 471 542 37,000  Level Minneapolis Center
Mon 06:22:11 PM 44.4950 -96.9750 45° Northeast 473 544 37,000  Level Minneapolis Center
Mon 06:23:13 PM 44.5506 -96.8036 65° Northeast 494 568 37,000 -435 Level Minneapolis Center
Mon 06:24:15 PM 44.5444 -96.6069 92° East 502 578 36,100 -871 Descending Minneapolis Center
Mon 06:25:17 PM 44.5358 -96.4075 93° East 507 583 35,200 -919 Descending Minneapolis Center
Mon 06:26:19 PM 44.5258 -96.2039 94° East 517 595 34,200 -968 Descending Minneapolis Center
Mon 06:27:21 PM 44.5161 -95.9997 94° East 519 597 33,200 -1,403 Descending Minneapolis Center
Mon 06:28:23 PM 44.5031 -95.7536 94° East 524 603 31,300 -2,032 Descending Minneapolis Center
Mon 06:29:25 PM 44.4919 -95.5550 94° East 514 592 29,000 -2,177 Descending Minneapolis Center
Mon 06:30:27 PM 44.4811 -95.3653 95° East 495 570 26,800 -2,081 Descending Minneapolis Center
Mon 06:31:29 PM 44.4694 -95.1828 95° East 476 548 24,700 -1,984 Descending Minneapolis Center
Mon 06:32:31 PM 44.4942 -95.0122 78° East 453 521 22,700 -1,887 Descending Minneapolis Center
Mon 06:33:33 PM 44.5344 -94.8497 71° East 444 511 20,800 -2,274 Descending Minneapolis Center
Mon 06:34:35 PM 44.5756 -94.6642 73° East 424 488 18,000 -2,323 Descending Minneapolis Center
Mon 06:35:37 PM 44.6053 -94.5419 71° East 403 464 16,000 -2,226 Descending Minneapolis Center
Mon 06:36:39 PM 44.6453 -94.3683 72° East 394 453 13,400 -2,274 Descending Minneapolis Center
Mon 06:37:41 PM 44.6772 -94.2283 72° East 379 436 11,300 -1,161 Descending Minneapolis Center
Mon 06:38:43 PM 44.7081 -94.0897 73° East 371 427 11,000 -145 Descending Minneapolis Center
Mon 06:39:45 PM 44.7386 -93.9531 72° East 367 422 11,000  Level Minneapolis Center
Mon 06:40:47 PM 44.7694 -93.8164 72° East 368 423 11,000  Level Minneapolis Center
Mon 06:41:49 PM 44.7992 -93.6797 73° East 365 420 11,000 -484 Level Minneapolis Center
Mon 06:42:51 PM 44.8331 -93.5253 73° East 337 388 10,000 -1,355 Descending Minneapolis Center
Mon 06:43:53 PM 44.8581 -93.4136 72° East 302 348 8,200 -1,016 Descending Minneapolis Center
Mon 06:44:55 PM 44.8358 -93.3222 109° East 271 312 7,900 -823 Descending Minneapolis Center
Mon 06:45:57 PM 44.7683 -93.3047 170° South 254 292 6,500 -1,403 Descending Minneapolis Center
Mon 06:46:59 PM 44.7011 -93.2822 167° South 217 250 5,000 -1,210 Descending Minneapolis Center
Mon 06:48:01 PM 44.7128 -93.2219 75° East 203 234 4,000 -968 Descending Minneapolis Center

Login

Don't have an account? Register now (free) for customized features, flight alerts, and more!